createdAt,value
2022-08-25T00:00:22.998Z,22.39
2022-08-25T00:03:06.772Z,22.41
2022-08-25T00:05:35.063Z,22.41
2022-08-25T00:08:06.662Z,22.41
2022-08-25T00:10:37.651Z,22.41
2022-08-25T00:13:05.876Z,22.41
2022-08-25T00:15:33.970Z,22.39
2022-08-25T00:18:02.641Z,22.39
2022-08-25T00:20:32.134Z,22.40
2022-08-25T00:23:00.007Z,22.40
2022-08-25T00:25:28.535Z,22.37
2022-08-25T00:27:57.487Z,22.32
2022-08-25T00:30:25.643Z,22.29
2022-08-25T00:32:56.885Z,22.28
2022-08-25T00:35:26.945Z,22.27
2022-08-25T00:37:55.192Z,22.27
2022-08-25T00:40:26.359Z,22.26
2022-08-25T00:42:54.878Z,22.26
2022-08-25T00:45:23.675Z,22.25
2022-08-25T00:47:51.626Z,22.23
2022-08-25T00:50:20.005Z,22.21
2022-08-25T00:52:51.590Z,22.22
2022-08-25T00:55:25.625Z,22.22
2022-08-25T00:58:03.024Z,22.20
2022-08-25T01:00:43.634Z,22.19
2022-08-25T01:03:13.052Z,22.18
2022-08-25T01:05:43.565Z,22.19
2022-08-25T01:08:29.109Z,22.18
2022-08-25T01:10:59.769Z,22.19
2022-08-25T01:13:41.755Z,22.19
2022-08-25T01:16:09.647Z,22.18
2022-08-25T01:18:53.530Z,22.18
2022-08-25T01:21:23.755Z,22.15
2022-08-25T01:23:53.244Z,22.15
2022-08-25T01:26:30.625Z,22.15
2022-08-25T01:29:22.550Z,22.16
2022-08-25T01:31:55.164Z,22.15
2022-08-25T01:34:25.804Z,22.15
2022-08-25T01:36:56.044Z,22.13
2022-08-25T01:39:26.285Z,22.10
2022-08-25T01:42:06.935Z,22.09
2022-08-25T01:44:38.184Z,22.09
2022-08-25T01:47:07.723Z,22.07
2022-08-25T01:49:37.252Z,22.05
2022-08-25T01:52:21.301Z,22.03
2022-08-25T01:54:50.129Z,22.05
2022-08-25T01:57:18.765Z,22.07
2022-08-25T01:59:47.807Z,22.09
2022-08-25T02:02:18.323Z,22.09
2022-08-25T02:04:48.044Z,22.10
2022-08-25T02:07:16.208Z,22.10
2022-08-25T02:09:44.771Z,22.07
2022-08-25T02:12:13.480Z,22.08
2022-08-25T02:14:41.751Z,22.10
2022-08-25T02:17:10.687Z,22.08
2022-08-25T02:19:38.711Z,22.07
2022-08-25T02:22:07.154Z,22.05
2022-08-25T02:24:35.219Z,22.02
2022-08-25T02:27:04.404Z,21.98
2022-08-25T02:29:34.092Z,21.97
2022-08-25T02:32:03.310Z,21.97
2022-08-25T02:34:31.205Z,21.96
2022-08-25T02:36:59.156Z,21.96
2022-08-25T02:39:27.019Z,21.95
2022-08-25T02:41:54.833Z,21.93
2022-08-25T02:44:22.831Z,21.93
2022-08-25T02:46:50.730Z,21.94
2022-08-25T02:49:18.960Z,21.94
2022-08-25T02:51:47.118Z,21.93
2022-08-25T02:54:15.096Z,21.92
2022-08-25T02:56:43.291Z,21.90
2022-08-25T02:59:12.410Z,21.87
2022-08-25T03:01:40.314Z,21.86
2022-08-25T03:04:08.174Z,21.87
2022-08-25T03:06:36.014Z,21.89
2022-08-25T03:09:04.585Z,21.92
2022-08-25T03:11:33.430Z,21.92
2022-08-25T03:14:01.273Z,21.93
2022-08-25T03:16:29.872Z,21.95
2022-08-25T03:18:58.610Z,21.96
2022-08-25T03:21:30.018Z,21.95
2022-08-25T03:23:59.385Z,21.93
2022-08-25T03:26:46.298Z,21.91
2022-08-25T03:29:14.412Z,21.86
2022-08-25T03:31:44.975Z,21.85
2022-08-25T03:34:19.690Z,21.83
2022-08-25T03:36:50.493Z,21.82
2022-08-25T03:39:20.397Z,21.82
2022-08-25T03:41:48.384Z,21.83
2022-08-25T03:44:17.605Z,21.83
2022-08-25T03:46:52.299Z,21.83
2022-08-25T03:49:23.010Z,21.84
2022-08-25T03:51:53.766Z,21.83
2022-08-25T03:54:24.934Z,21.83
2022-08-25T03:56:53.358Z,21.81
2022-08-25T03:59:21.415Z,21.80
2022-08-25T04:01:54.460Z,21.82
2022-08-25T04:04:23.666Z,21.85
2022-08-25T04:06:53.345Z,21.88
2022-08-25T04:09:21.974Z,21.88
2022-08-25T04:11:53.050Z,21.91
2022-08-25T04:14:24.033Z,21.93
2022-08-25T04:16:53.450Z,21.95
2022-08-25T04:19:22.376Z,21.96
2022-08-25T04:21:50.456Z,21.98
2022-08-25T04:24:19.565Z,21.99
2022-08-25T04:26:51.095Z,22.03
2022-08-25T04:29:23.547Z,22.07
2022-08-25T04:31:53.960Z,22.09
2022-08-25T04:34:30.500Z,22.14
2022-08-25T04:37:03.281Z,22.17
2022-08-25T04:39:31.771Z,22.23
2022-08-25T04:42:01.149Z,22.29
2022-08-25T04:44:32.078Z,22.36
2022-08-25T04:47:00.636Z,22.42
2022-08-25T04:49:29.154Z,22.47
2022-08-25T04:51:57.856Z,22.53
2022-08-25T04:54:28.342Z,22.61
2022-08-25T04:56:58.281Z,22.65
2022-08-25T04:59:30.264Z,22.71
2022-08-25T05:02:02.792Z,22.82
2022-08-25T05:04:32.911Z,22.91
2022-08-25T05:07:01.353Z,22.99
2022-08-25T05:09:32.335Z,23.09
2022-08-25T05:12:04.670Z,23.16
2022-08-25T05:14:33.005Z,23.27
2022-08-25T05:17:02.183Z,23.45
2022-08-25T05:19:31.106Z,23.67
2022-08-25T05:21:59.525Z,24.00
2022-08-25T05:24:28.565Z,24.40
2022-08-25T05:26:56.983Z,24.84
2022-08-25T05:29:24.995Z,25.31
2022-08-25T05:31:53.619Z,25.70
2022-08-25T05:34:22.445Z,26.06
2022-08-25T05:36:51.533Z,26.37
2022-08-25T05:39:19.475Z,26.63
2022-08-25T05:41:47.307Z,27.00
2022-08-25T05:44:19.141Z,27.39
2022-08-25T05:46:48.980Z,27.81
2022-08-25T05:49:17.394Z,28.19
2022-08-25T05:51:45.272Z,28.55
2022-08-25T05:54:13.098Z,28.91
2022-08-25T05:56:41.593Z,29.25
2022-08-25T05:59:09.909Z,29.46
2022-08-25T06:01:57.272Z,29.86
2022-08-25T06:04:25.666Z,30.25
2022-08-25T06:06:55.156Z,30.53
2022-08-25T06:09:23.430Z,30.69
2022-08-25T06:11:54.708Z,30.84
2022-08-25T06:14:24.329Z,31.06
2022-08-25T06:16:52.706Z,31.19
2022-08-25T06:19:23.538Z,31.08
2022-08-25T06:21:55.688Z,30.97
2022-08-25T06:24:26.357Z,30.95
2022-08-25T06:26:56.338Z,30.86
2022-08-25T06:29:24.482Z,30.86
2022-08-25T06:31:53.120Z,30.83
2022-08-25T06:34:24.007Z,30.77
2022-08-25T06:36:53.181Z,30.62
2022-08-25T06:39:21.557Z,30.47
2022-08-25T06:41:55.022Z,30.31
2022-08-25T06:44:24.062Z,30.15
2022-08-25T06:46:52.010Z,30.15
2022-08-25T06:49:20.516Z,30.21
2022-08-25T06:51:49.776Z,30.37
2022-08-25T06:54:17.857Z,30.53
2022-08-25T06:56:45.759Z,30.54
2022-08-25T06:59:14.125Z,30.59
2022-08-25T07:01:42.233Z,30.90
2022-08-25T07:04:12.856Z,31.17
2022-08-25T07:06:42.251Z,31.35
2022-08-25T07:09:12.397Z,31.59
2022-08-25T07:11:41.944Z,31.80
2022-08-25T07:14:12.115Z,31.86
2022-08-25T07:16:43.169Z,32.02
2022-08-25T07:19:21.218Z,32.34
2022-08-25T07:21:52.103Z,32.44
2022-08-25T07:24:20.122Z,32.48
2022-08-25T07:26:48.285Z,32.36
2022-08-25T07:29:20.157Z,32.22
2022-08-25T07:32:02.716Z,32.28
2022-08-25T07:34:51.867Z,32.65
2022-08-25T07:40:22.534Z,33.49
2022-08-25T07:42:53.759Z,33.63
2022-08-25T07:45:30.411Z,33.58
2022-08-25T07:48:07.438Z,33.14
2022-08-25T07:50:39.037Z,33.03
2022-08-25T07:53:07.240Z,33.09
2022-08-25T07:55:36.804Z,32.80
2022-08-25T07:58:08.448Z,33.21
2022-08-25T08:00:39.865Z,33.81
2022-08-25T08:03:19.918Z,34.16
2022-08-25T08:05:59.963Z,34.35
2022-08-25T08:08:29.476Z,34.83
2022-08-25T08:11:05.429Z,35.39
2022-08-25T08:13:38.004Z,35.67
2022-08-25T08:16:13.778Z,34.76
2022-08-25T08:18:43.789Z,34.07
2022-08-25T08:21:23.466Z,34.03
2022-08-25T08:23:58.138Z,34.08
2022-08-25T08:26:48.088Z,34.49
2022-08-25T08:29:16.895Z,35.12
2022-08-25T08:31:48.662Z,35.34
2022-08-25T08:34:17.360Z,35.18
2022-08-25T08:36:45.483Z,35.16
2022-08-25T08:39:13.498Z,35.06
2022-08-25T08:42:11.423Z,35.04
2022-08-25T08:44:58.028Z,35.57
2022-08-25T08:48:10.361Z,36.51
2022-08-25T08:50:46.577Z,37.35
2022-08-25T08:53:15.073Z,37.99
2022-08-25T08:55:51.842Z,38.43
2022-08-25T08:58:45.816Z,39.12
2022-08-25T09:01:29.606Z,39.73
2022-08-25T09:04:08.716Z,40.08
2022-08-25T09:06:48.340Z,40.09
2022-08-25T09:09:26.796Z,40.04
2022-08-25T09:12:10.205Z,40.59
2022-08-25T09:14:57.682Z,41.04
2022-08-25T09:17:54.968Z,41.56
2022-08-25T09:20:39.016Z,41.77
2022-08-25T09:23:48.277Z,41.71
2022-08-25T09:26:39.296Z,40.93
2022-08-25T09:29:16.504Z,41.44
2022-08-25T09:31:45.234Z,41.85
2022-08-25T09:34:22.220Z,41.97
2022-08-25T09:36:53.507Z,41.88
2022-08-25T09:39:21.571Z,40.93
2022-08-25T09:41:52.781Z,40.97
2022-08-25T09:44:32.084Z,41.41
2022-08-25T09:47:08.440Z,42.16
2022-08-25T09:50:04.571Z,42.50
2022-08-25T09:52:42.609Z,42.33
2022-08-25T09:55:16.215Z,42.93
2022-08-25T09:57:44.212Z,43.39
2022-08-25T10:00:33.903Z,43.66
2022-08-25T10:03:24.944Z,43.21
2022-08-25T10:05:58.066Z,42.23
2022-08-25T10:08:32.756Z,41.44
2022-08-25T10:11:06.536Z,42.45
2022-08-25T10:13:43.027Z,42.71
2022-08-25T10:16:32.073Z,42.66
2022-08-25T10:19:10.237Z,43.17
2022-08-25T10:21:41.668Z,43.61
2022-08-25T10:24:12.618Z,42.36
2022-08-25T10:27:03.517Z,42.16
2022-08-25T10:30:03.488Z,43.07
2022-08-25T10:32:40.794Z,43.50
2022-08-25T10:35:23.755Z,43.59
2022-08-25T10:38:27.206Z,43.12
2022-08-25T10:41:23.001Z,42.99
2022-08-25T10:44:44.425Z,42.08
2022-08-25T10:47:29.700Z,41.82
2022-08-25T10:50:13.769Z,41.73
2022-08-25T10:52:59.982Z,41.14
2022-08-25T10:55:52.937Z,40.78
2022-08-25T10:59:07.364Z,41.23
2022-08-25T11:02:13.214Z,40.90
2022-08-25T11:04:59.485Z,40.41
2022-08-25T11:07:36.185Z,40.35
2022-08-25T11:10:12.555Z,40.35
2022-08-25T11:12:51.277Z,40.24
2022-08-25T11:15:29.113Z,40.37
2022-08-25T11:18:14.477Z,40.60
2022-08-25T11:20:56.392Z,40.60
2022-08-25T11:23:59.439Z,40.11
2022-08-25T11:26:36.885Z,40.35
2022-08-25T11:29:13.611Z,40.80
2022-08-25T11:31:52.187Z,40.52
2022-08-25T11:34:22.729Z,40.61
2022-08-25T11:37:00.084Z,41.23
2022-08-25T11:39:58.894Z,41.93
2022-08-25T11:42:35.918Z,41.33
2022-08-25T11:45:41.423Z,40.83
2022-08-25T11:48:22.947Z,40.75
2022-08-25T11:51:03.276Z,40.84
2022-08-25T11:53:42.324Z,40.84
2022-08-25T11:56:31.914Z,41.03
2022-08-25T11:59:00.882Z,41.37
2022-08-25T12:01:40.931Z,41.65
2022-08-25T12:04:34.123Z,42.67
2022-08-25T12:07:11.208Z,42.94
2022-08-25T12:09:51.485Z,41.83
2022-08-25T12:12:38.529Z,41.98
2022-08-25T12:15:22.851Z,42.23
2022-08-25T12:18:13.690Z,40.14
2022-08-25T12:20:56.710Z,39.49
2022-08-25T12:24:03.003Z,39.66
2022-08-25T12:26:46.143Z,39.50
2022-08-25T12:29:30.930Z,40.46
2022-08-25T12:32:23.065Z,40.95
2022-08-25T12:34:54.123Z,41.36
2022-08-25T12:37:25.329Z,41.47
2022-08-25T12:40:05.821Z,40.99
2022-08-25T12:42:43.383Z,40.83
2022-08-25T12:45:31.569Z,40.64
2022-08-25T12:48:29.260Z,41.29
2022-08-25T12:51:05.390Z,42.39
2022-08-25T12:53:43.327Z,43.20
2022-08-25T12:56:23.485Z,43.93
2022-08-25T12:59:12.691Z,43.43
2022-08-25T13:02:10.170Z,42.93
2022-08-25T13:04:38.676Z,42.43
2022-08-25T13:07:41.770Z,41.26
2022-08-25T13:10:21.655Z,41.22
2022-08-25T13:13:07.187Z,41.02
2022-08-25T13:15:35.490Z,40.65
2022-08-25T13:18:27.343Z,40.23
2022-08-25T13:21:13.912Z,41.01
2022-08-25T13:24:05.897Z,41.07
2022-08-25T13:26:47.187Z,41.39
2022-08-25T13:29:23.426Z,41.75
2022-08-25T13:32:02.009Z,41.19
2022-08-25T13:34:35.026Z,40.50
2022-08-25T13:37:32.714Z,40.40
2022-08-25T13:40:24.504Z,40.62
2022-08-25T13:43:02.670Z,40.48
2022-08-25T13:45:41.420Z,39.88
2022-08-25T13:48:20.741Z,39.54
2022-08-25T13:50:51.869Z,40.06
2022-08-25T13:53:26.599Z,39.80
2022-08-25T13:56:01.816Z,40.22
2022-08-25T13:58:44.891Z,41.10
2022-08-25T14:01:47.223Z,41.68
2022-08-25T14:04:40.021Z,41.58
2022-08-25T14:07:21.735Z,41.03
2022-08-25T14:09:59.098Z,40.62
2022-08-25T14:12:40.934Z,40.71
2022-08-25T14:15:17.872Z,41.73
2022-08-25T14:18:02.856Z,42.03
2022-08-25T14:20:33.561Z,42.40
2022-08-25T14:23:18.947Z,42.72
2022-08-25T14:25:52.210Z,42.72
2022-08-25T14:28:29.520Z,42.81
2022-08-25T14:31:14.406Z,42.76
2022-08-25T14:33:51.985Z,43.37
2022-08-25T14:36:20.990Z,44.07
2022-08-25T14:38:54.846Z,45.11
2022-08-25T14:41:25.595Z,46.00
2022-08-25T14:43:53.925Z,45.66
2022-08-25T14:46:25.682Z,45.70
2022-08-25T14:48:58.519Z,46.04
2022-08-25T14:51:32.074Z,47.00
2022-08-25T14:54:04.335Z,47.97
2022-08-25T14:56:33.554Z,47.84
2022-08-25T14:59:01.877Z,47.58
2022-08-25T15:01:30.182Z,47.10
2022-08-25T15:04:11.721Z,47.06
2022-08-25T15:06:44.565Z,46.53
2022-08-25T15:09:17.157Z,45.41
2022-08-25T15:11:50.775Z,45.06
2022-08-25T15:14:28.929Z,45.22
2022-08-25T15:17:02.919Z,46.02
2022-08-25T15:19:31.405Z,45.22
2022-08-25T15:21:59.509Z,45.42
2022-08-25T15:24:28.913Z,45.99
2022-08-25T15:27:00.368Z,45.71
2022-08-25T15:29:32.611Z,45.27
2022-08-25T15:32:02.775Z,45.74
2022-08-25T15:34:50.316Z,46.16
2022-08-25T15:37:18.391Z,46.16
2022-08-25T15:39:47.527Z,45.32
2022-08-25T15:42:17.038Z,44.61
2022-08-25T15:44:53.541Z,44.56
2022-08-25T15:47:24.531Z,45.22
2022-08-25T15:50:06.875Z,45.56
2022-08-25T15:52:45.910Z,45.08
2022-08-25T15:55:16.631Z,44.61
2022-08-25T15:57:44.901Z,44.26
2022-08-25T16:00:16.793Z,43.87
2022-08-25T16:02:46.270Z,43.35
2022-08-25T16:05:16.205Z,42.57
2022-08-25T16:07:51.650Z,42.44
2022-08-25T16:10:20.251Z,42.73
2022-08-25T16:12:48.107Z,42.96
2022-08-25T16:15:16.231Z,43.36
2022-08-25T16:17:47.010Z,43.54
2022-08-25T16:20:21.194Z,43.06
2022-08-25T16:22:51.521Z,42.42
2022-08-25T16:25:20.550Z,41.78
2022-08-25T16:27:49.470Z,41.48
2022-08-25T16:30:18.344Z,41.68
2022-08-25T16:32:47.257Z,41.77
2022-08-25T16:35:16.571Z,41.30
2022-08-25T16:37:44.610Z,41.16
2022-08-25T16:40:14.623Z,40.67
2022-08-25T16:42:43.001Z,39.21
2022-08-25T16:45:12.086Z,37.55
2022-08-25T16:47:42.671Z,36.26
2022-08-25T16:50:11.501Z,35.36
2022-08-25T16:52:59.435Z,34.55
2022-08-25T16:55:39.005Z,33.92
2022-08-25T16:58:12.529Z,33.50
2022-08-25T17:00:44.641Z,33.08
2022-08-25T17:03:13.419Z,32.70
2022-08-25T17:05:43.877Z,32.44
2022-08-25T17:08:30.765Z,32.15
2022-08-25T17:11:08.149Z,31.89
2022-08-25T17:13:38.858Z,31.65
2022-08-25T17:16:14.581Z,31.46
2022-08-25T17:18:43.658Z,31.12
2022-08-25T17:21:23.955Z,30.82
2022-08-25T17:23:58.125Z,30.54
2022-08-25T17:26:29.123Z,30.30
2022-08-25T17:29:01.244Z,30.07
2022-08-25T17:31:30.935Z,29.90
2022-08-25T17:33:59.900Z,29.69
2022-08-25T17:36:28.269Z,29.50
2022-08-25T17:38:57.032Z,29.28
2022-08-25T17:41:26.345Z,29.05
2022-08-25T17:43:54.449Z,28.86
2022-08-25T17:46:22.584Z,28.63
2022-08-25T17:48:50.677Z,28.45
2022-08-25T17:51:18.993Z,28.27
2022-08-25T17:53:49.812Z,28.05
2022-08-25T17:56:21.575Z,27.89
2022-08-25T17:58:52.440Z,27.79
2022-08-25T18:01:24.884Z,27.70
2022-08-25T18:03:55.074Z,27.58
2022-08-25T18:06:25.644Z,27.50
2022-08-25T18:08:57.537Z,27.43
2022-08-25T18:11:30.160Z,27.30
2022-08-25T18:13:58.917Z,27.15
2022-08-25T18:16:27.920Z,27.07
2022-08-25T18:18:57.366Z,26.95
2022-08-25T18:21:30.224Z,26.88
2022-08-25T18:23:59.070Z,26.87
2022-08-25T18:26:27.975Z,26.86
2022-08-25T18:28:56.050Z,26.83
2022-08-25T18:31:24.064Z,26.77
2022-08-25T18:33:52.438Z,26.72
2022-08-25T18:36:21.275Z,26.70
2022-08-25T18:39:09.268Z,26.62
2022-08-25T18:41:41.037Z,26.53
2022-08-25T18:44:11.022Z,26.40
2022-08-25T18:46:40.511Z,26.27
2022-08-25T18:49:09.190Z,26.21
2022-08-25T18:51:38.014Z,26.18
2022-08-25T18:54:08.364Z,26.10
2022-08-25T18:56:53.920Z,26.12
2022-08-25T18:59:23.732Z,26.10
2022-08-25T19:01:54.246Z,26.00
2022-08-25T19:04:31.358Z,25.90
2022-08-25T19:07:04.795Z,25.83
2022-08-25T19:09:36.784Z,25.68
2022-08-25T19:12:05.860Z,25.58
2022-08-25T19:14:33.936Z,25.52
2022-08-25T19:17:02.503Z,25.47
2022-08-25T19:19:31.702Z,25.37
2022-08-25T19:22:00.189Z,25.27
2022-08-25T19:24:29.275Z,25.14
2022-08-25T19:26:58.374Z,25.01
2022-08-25T19:29:26.859Z,24.96
2022-08-25T19:32:01.164Z,24.95
2022-08-25T19:34:35.385Z,24.92
2022-08-25T19:37:07.456Z,24.92
2022-08-25T19:39:40.990Z,24.95
2022-08-25T19:42:35.231Z,24.98
2022-08-25T19:44:59.874Z,25.06
2022-08-25T19:47:30.039Z,25.07
2022-08-25T19:50:00.727Z,25.04
2022-08-25T19:52:29.152Z,25.03
2022-08-25T19:54:58.450Z,24.98
2022-08-25T19:57:28.414Z,24.91
2022-08-25T20:00:29.512Z,24.83
2022-08-25T20:03:00.840Z,24.70
2022-08-25T20:05:30.372Z,24.61
2022-08-25T20:07:59.824Z,24.53
2022-08-25T20:10:35.608Z,24.47
2022-08-25T20:13:10.041Z,24.41
2022-08-25T20:15:39.185Z,24.44
2022-08-25T20:18:10.686Z,24.37
2022-08-25T20:20:39.265Z,24.26
2022-08-25T20:23:26.694Z,24.14
2022-08-25T20:25:55.995Z,24.06
2022-08-25T20:28:24.535Z,24.00
2022-08-25T20:30:52.722Z,23.93
2022-08-25T20:33:23.637Z,23.88
2022-08-25T20:35:53.102Z,23.85
2022-08-25T20:38:21.729Z,23.82
2022-08-25T20:40:49.761Z,23.77
2022-08-25T20:43:18.117Z,23.72
2022-08-25T20:45:49.459Z,23.63
2022-08-25T20:48:18.156Z,23.50
2022-08-25T20:50:46.057Z,23.40
2022-08-25T20:53:26.492Z,23.32
2022-08-25T20:55:54.570Z,23.24
2022-08-25T20:58:22.635Z,23.16
2022-08-25T21:00:52.022Z,23.10
2022-08-25T21:03:20.921Z,23.05
2022-08-25T21:05:49.288Z,23.00
2022-08-25T21:08:23.677Z,22.97
2022-08-25T21:10:51.882Z,22.94
2022-08-25T21:13:20.158Z,22.88
2022-08-25T21:15:51.121Z,22.78
2022-08-25T21:18:19.601Z,22.68
2022-08-25T21:20:47.645Z,22.60
2022-08-25T21:23:16.066Z,22.57
2022-08-25T21:25:44.109Z,22.52
2022-08-25T21:28:13.116Z,22.48
2022-08-25T21:30:44.683Z,22.42
2022-08-25T21:33:15.988Z,22.36
2022-08-25T21:35:44.176Z,22.29
2022-08-25T21:38:16.164Z,22.25
2022-08-25T21:40:45.195Z,22.18
2022-08-25T21:43:13.507Z,22.11
2022-08-25T21:45:46.687Z,22.07
2022-08-25T21:48:15.849Z,21.97
2022-08-25T21:50:44.056Z,21.91
2022-08-25T21:53:12.147Z,21.85
2022-08-25T21:55:44.296Z,21.82
2022-08-25T21:58:12.373Z,21.80
2022-08-25T22:00:41.979Z,21.81
2022-08-25T22:03:09.944Z,21.79
2022-08-25T22:05:38.020Z,21.79
2022-08-25T22:08:06.291Z,21.81
2022-08-25T22:10:34.371Z,21.76
2022-08-25T22:13:03.033Z,21.68
2022-08-25T22:15:31.419Z,21.62
2022-08-25T22:17:59.497Z,21.58
2022-08-25T22:20:29.710Z,21.54
2022-08-25T22:22:57.685Z,21.56
2022-08-25T22:25:28.205Z,21.55
2022-08-25T22:27:57.297Z,21.52
2022-08-25T22:30:28.349Z,21.50
2022-08-25T22:32:59.402Z,21.49
2022-08-25T22:35:31.038Z,21.47
2022-08-25T22:38:01.770Z,21.41
2022-08-25T22:40:34.261Z,21.36
2022-08-25T22:43:03.895Z,21.29
2022-08-25T22:45:35.669Z,21.23
2022-08-25T22:48:05.526Z,21.16
2022-08-25T22:50:37.485Z,21.03
2022-08-25T22:53:05.700Z,20.91
2022-08-25T22:55:34.445Z,20.81
2022-08-25T22:58:02.417Z,20.78
2022-08-25T23:00:32.125Z,20.76
2022-08-25T23:03:00.201Z,20.70
2022-08-25T23:05:29.798Z,20.68
2022-08-25T23:07:57.979Z,20.63
2022-08-25T23:10:26.766Z,20.61
2022-08-25T23:12:54.731Z,20.59
2022-08-25T23:15:22.800Z,20.59
2022-08-25T23:17:51.690Z,20.56
2022-08-25T23:20:44.812Z,20.49
2022-08-25T23:23:14.254Z,20.39
2022-08-25T23:25:42.251Z,20.34
2022-08-25T23:28:10.400Z,20.28
2022-08-25T23:30:39.912Z,20.20
2022-08-25T23:33:18.716Z,20.11
2022-08-25T23:35:57.186Z,20.06
2022-08-25T23:38:25.822Z,20.00
2022-08-25T23:40:57.123Z,19.95
2022-08-25T23:43:26.595Z,19.90
2022-08-25T23:45:55.816Z,19.86
2022-08-25T23:48:25.478Z,19.81
2022-08-25T23:50:53.970Z,19.75
2022-08-25T23:53:22.861Z,19.72
2022-08-25T23:55:54.135Z,19.68
2022-08-25T23:58:24.184Z,19.60
